sensor_id;sensor_type;location;lat;lon;timestamp;P1;durP1;ratioP1;P2;durP2;ratioP2
23868;SDS011;12115;47.128;15.422;2024-02-14T08:17:23;14.80;;;2.47;;
23868;SDS011;12115;47.128;15.422;2024-02-14T08:19:49;12.13;;;2.33;;
23868;SDS011;12115;47.128;15.422;2024-02-14T08:22:15;7.03;;;2.40;;
23868;SDS011;12115;47.128;15.422;2024-02-14T08:24:42;12.55;;;4.57;;
23868;SDS011;12115;47.128;15.422;2024-02-14T08:27:08;10.48;;;2.50;;
23868;SDS011;12115;47.128;15.422;2024-02-14T08:29:34;5.45;;;2.20;;
23868;SDS011;12115;47.128;15.422;2024-02-14T08:51:38;8.85;;;2.95;;
23868;SDS011;12115;47.128;15.422;2024-02-14T08:54:04;6.30;;;2.90;;
23868;SDS011;12115;47.128;15.422;2024-02-14T08:56:32;7.30;;;2.15;;
23868;SDS011;12115;47.128;15.422;2024-02-14T08:59:02;6.60;;;2.10;;
23868;SDS011;12115;47.128;15.422;2024-02-14T09:01:29;11.25;;;4.05;;
23868;SDS011;12115;47.128;15.422;2024-02-14T09:03:56;5.13;;;3.00;;
23868;SDS011;12115;47.128;15.422;2024-02-14T09:06:23;10.02;;;1.98;;
23868;SDS011;12115;47.128;15.422;2024-02-14T09:08:49;7.45;;;2.90;;
23868;SDS011;12115;47.128;15.422;2024-02-14T09:11:21;4.45;;;2.47;;
23868;SDS011;12115;47.128;15.422;2024-02-14T09:13:48;8.88;;;2.53;;
23868;SDS011;12115;47.128;15.422;2024-02-14T09:16:16;7.63;;;2.35;;
23868;SDS011;12115;47.128;15.422;2024-02-14T09:18:44;5.38;;;2.45;;
23868;SDS011;12115;47.128;15.422;2024-02-14T09:21:11;8.45;;;2.50;;
23868;SDS011;12115;47.128;15.422;2024-02-14T09:23:41;8.07;;;2.42;;
23868;SDS011;12115;47.128;15.422;2024-02-14T09:26:07;10.02;;;2.47;;
23868;SDS011;12115;47.128;15.422;2024-02-14T09:28:34;9.15;;;3.15;;
23868;SDS011;12115;47.128;15.422;2024-02-14T09:31:00;11.00;;;3.05;;
23868;SDS011;12115;47.128;15.422;2024-02-14T09:33:29;9.43;;;2.40;;
23868;SDS011;12115;47.128;15.422;2024-02-14T09:35:55;9.77;;;2.60;;
23868;SDS011;12115;47.128;15.422;2024-02-14T09:38:22;8.68;;;2.55;;
23868;SDS011;12115;47.128;15.422;2024-02-14T09:40:50;10.02;;;2.47;;
23868;SDS011;12115;47.128;15.422;2024-02-14T09:43:31;7.88;;;2.72;;
23868;SDS011;12115;47.128;15.422;2024-02-14T09:46:01;10.00;;;3.28;;
23868;SDS011;12115;47.128;15.422;2024-02-14T09:48:29;9.38;;;2.90;;
23868;SDS011;12115;47.128;15.422;2024-02-14T09:50:56;6.38;;;2.20;;
23868;SDS011;12115;47.128;15.422;2024-02-14T09:53:23;5.82;;;2.45;;
23868;SDS011;12115;47.128;15.422;2024-02-14T09:55:50;6.47;;;2.30;;
23868;SDS011;12115;47.128;15.422;2024-02-14T09:58:17;5.03;;;1.63;;
23868;SDS011;12115;47.128;15.422;2024-02-14T10:00:43;6.90;;;2.03;;
23868;SDS011;12115;47.128;15.422;2024-02-14T10:03:09;5.03;;;1.95;;
23868;SDS011;12115;47.128;15.422;2024-02-14T10:05:36;4.82;;;1.77;;
23868;SDS011;12115;47.128;15.422;2024-02-14T10:08:03;3.60;;;1.48;;
23868;SDS011;12115;47.128;15.422;2024-02-14T10:10:31;4.85;;;2.03;;
23868;SDS011;12115;47.128;15.422;2024-02-14T10:13:03;4.35;;;1.92;;
23868;SDS011;12115;47.128;15.422;2024-02-14T10:15:31;3.22;;;1.70;;
23868;SDS011;12115;47.128;15.422;2024-02-14T10:17:58;5.53;;;1.98;;
23868;SDS011;12115;47.128;15.422;2024-02-14T10:20:25;3.63;;;1.50;;
23868;SDS011;12115;47.128;15.422;2024-02-14T10:22:59;3.08;;;1.63;;
23868;SDS011;12115;47.128;15.422;2024-02-14T10:25:27;9.68;;;1.48;;
23868;SDS011;12115;47.128;15.422;2024-02-14T10:27:53;3.92;;;1.20;;
23868;SDS011;12115;47.128;15.422;2024-02-14T10:30:20;3.70;;;1.58;;
23868;SDS011;12115;47.128;15.422;2024-02-14T10:32:47;5.45;;;1.35;;
23868;SDS011;12115;47.128;15.422;2024-02-14T10:35:15;3.50;;;0.98;;
23868;SDS011;12115;47.128;15.422;2024-02-14T10:37:42;3.28;;;0.88;;
23868;SDS011;12115;47.128;15.422;2024-02-14T10:40:10;2.38;;;1.00;;
23868;SDS011;12115;47.128;15.422;2024-02-14T10:45:03;3.15;;;1.42;;
23868;SDS011;12115;47.128;15.422;2024-02-14T10:47:32;1.42;;;0.60;;
23868;SDS011;12115;47.128;15.422;2024-02-14T10:50:02;4.93;;;0.82;;
23868;SDS011;12115;47.128;15.422;2024-02-14T10:52:34;4.32;;;0.80;;
23868;SDS011;12115;47.128;15.422;2024-02-14T10:55:02;1.70;;;0.70;;
23868;SDS011;12115;47.128;15.422;2024-02-14T10:57:31;1.55;;;0.80;;
23868;SDS011;12115;47.128;15.422;2024-02-14T11:02:39;3.83;;;0.80;;
23868;SDS011;12115;47.128;15.422;2024-02-14T11:05:11;2.95;;;0.77;;
23868;SDS011;12115;47.128;15.422;2024-02-14T11:07:46;2.08;;;0.80;;
23868;SDS011;12115;47.128;15.422;2024-02-14T11:10:15;3.40;;;0.60;;
23868;SDS011;12115;47.128;15.422;2024-02-14T11:12:42;1.57;;;0.60;;
23868;SDS011;12115;47.128;15.422;2024-02-14T11:17:45;2.08;;;0.73;;
23868;SDS011;12115;47.128;15.422;2024-02-14T11:20:21;3.53;;;1.35;;
23868;SDS011;12115;47.128;15.422;2024-02-14T11:22:57;2.75;;;0.90;;
23868;SDS011;12115;47.128;15.422;2024-02-14T11:25:29;4.05;;;1.10;;
23868;SDS011;12115;47.128;15.422;2024-02-14T11:28:15;2.47;;;1.15;;
23868;SDS011;12115;47.128;15.422;2024-02-14T11:30:42;3.00;;;1.10;;
23868;SDS011;12115;47.128;15.422;2024-02-14T11:35:40;3.30;;;0.90;;
23868;SDS011;12115;47.128;15.422;2024-02-14T11:38:08;5.38;;;1.00;;
23868;SDS011;12115;47.128;15.422;2024-02-14T11:40:35;5.82;;;1.05;;
23868;SDS011;12115;47.128;15.422;2024-02-14T11:43:05;2.22;;;0.95;;
23868;SDS011;12115;47.128;15.422;2024-02-14T11:45:40;4.32;;;0.68;;
23868;SDS011;12115;47.128;15.422;2024-02-14T11:48:08;2.10;;;0.93;;
23868;SDS011;12115;47.128;15.422;2024-02-14T11:50:38;3.03;;;0.90;;
23868;SDS011;12115;47.128;15.422;2024-02-14T11:53:05;4.30;;;1.40;;
23868;SDS011;12115;47.128;15.422;2024-02-14T11:55:35;2.88;;;1.10;;
23868;SDS011;12115;47.128;15.422;2024-02-14T18:19:50;5.20;;;1.52;;
23868;SDS011;12115;47.128;15.422;2024-02-14T18:22:17;4.85;;;1.85;;
